Time;durP1;ratioP1;P1;durP2;ratioP2;P2;SDS_P1;SDS_P2;PMS_P1;PMS_P2;Temp;Humidity;BMP_temperature;BMP_pressure;BME280_temperature;BME280_humidity;BME280_pressure;Samples;Min_cycle;Max_cycle;Signal;HPM_P1;HPM_P2
2023/06/12 05:17:10;;;;;;;6.28;3.50;;;21.50;15.70;;;;;;6110399;23;20231;31
2023/06/12 05:19:39;;;;;;;5.05;3.05;;;21.00;14.20;;;;;;4936643;29;20205;-95
2023/06/12 05:22:06;;;;;;;4.15;3.05;;;20.50;15.90;;;;;;4937875;29;20224;-95
2023/06/12 05:24:33;;;;;;;4.63;3.38;;;20.10;16.80;;;;;;4940827;29;20264;-94
2023/06/12 05:27:00;;;;;;;4.28;3.00;;;19.90;18.20;;;;;;4937015;29;20205;-95
2023/06/12 05:29:27;;;;;;;5.60;3.20;;;19.70;19.50;;;;;;4937420;29;20208;-95
2023/06/12 05:31:54;;;;;;;6.13;3.40;;;19.60;20.20;;;;;;4937097;29;20197;-95
2023/06/12 05:34:21;;;;;;;5.30;3.25;;;19.60;21.30;;;;;;4937129;29;20236;-93
2023/06/12 05:36:50;;;;;;;4.47;3.05;;;19.50;21.80;;;;;;4937720;29;20204;-95
2023/06/12 05:39:17;;;;;;;4.93;3.28;;;19.40;24.00;;;;;;4937134;29;20287;-94
2023/06/12 05:41:44;;;;;;;6.55;3.28;;;19.50;24.70;;;;;;4937207;29;20216;-94
2023/06/12 05:44:11;;;;;;;4.38;3.47;;;19.50;26.10;;;;;;4937392;29;20201;-94
2023/06/12 05:46:38;;;;;;;6.70;3.83;;;19.60;25.70;;;;;;4936852;29;20671;-94
2023/06/12 05:49:05;;;;;;;6.60;3.13;;;19.60;27.30;;;;;;4937077;29;20233;-95
2023/06/12 05:51:32;;;;;;;4.40;3.20;;;19.60;28.60;;;;;;4937347;29;20201;-94
2023/06/12 05:54:01;;;;;;;8.57;3.63;;;19.70;29.70;;;;;;4937713;29;20242;-94
2023/06/12 05:56:29;;;;;;;5.07;3.10;;;19.80;29.60;;;;;;4937071;29;20283;-95
2023/06/12 05:58:56;;;;;;;8.27;3.63;;;19.80;30.10;;;;;;4937059;29;20205;-95
2023/06/12 06:01:25;;;;;;;4.63;3.33;;;19.90;31.20;;;;;;4937111;29;20221;-95
2023/06/12 06:03:52;;;;;;;5.03;3.55;;;20.10;33.10;;;;;;4937203;29;20279;-96
2023/06/12 06:06:19;;;;;;;5.82;3.55;;;20.20;33.60;;;;;;4936972;29;20197;-95
2023/06/12 06:08:46;;;;;;;4.90;3.45;;;20.30;34.50;;;;;;4937105;29;20201;-95
2023/06/12 06:11:15;;;;;;;6.93;3.60;;;20.40;35.90;;;;;;4921006;29;20248;-95
2023/06/12 06:13:43;;;;;;;6.35;3.75;;;20.50;35.50;;;;;;4918093;29;20209;-95
2023/06/12 06:16:11;;;;;;;4.45;3.40;;;20.60;37.10;;;;;;4918174;29;20213;-96
2023/06/12 06:18:38;;;;;;;5.25;3.88;;;20.80;36.80;;;;;;4919309;29;20229;-95
2023/06/12 06:21:05;;;;;;;6.63;3.83;;;20.90;37.90;;;;;;4921657;29;20258;-95
2023/06/12 06:23:33;;;;;;;5.63;3.97;;;21.00;37.60;;;;;;4940214;29;20373;-95
2023/06/12 06:26:01;;;;;;;3.70;3.40;;;21.10;38.40;;;;;;4940405;29;20288;-95
2023/06/12 06:28:29;;;;;;;7.97;3.80;;;21.20;38.60;;;;;;4940609;29;20208;-95
2023/06/12 06:30:56;;;;;;;4.47;3.63;;;21.30;39.10;;;;;;4940442;29;20730;-96
2023/06/12 06:33:23;;;;;;;7.10;3.63;;;21.40;38.80;;;;;;4940448;29;20209;-95
2023/06/12 06:35:50;;;;;;;6.28;3.55;;;21.40;39.00;;;;;;4940386;29;20256;-95
2023/06/12 06:38:21;;;;;;;8.20;3.80;;;21.50;38.30;;;;;;4940046;29;20671;-95
2023/06/12 06:40:48;;;;;;;4.20;3.80;;;21.60;38.40;;;;;;4940061;29;20213;-96
2023/06/12 06:43:15;;;;;;;5.78;4.28;;;21.60;38.10;;;;;;4940060;29;20675;-95
2023/06/12 06:45:43;;;;;;;6.90;4.03;;;21.60;38.20;;;;;;4940461;29;20192;-95
2023/06/12 06:48:12;;;;;;;4.75;3.55;;;21.50;37.70;;;;;;4940085;29;20205;-95
2023/06/12 06:50:39;;;;;;;5.32;3.60;;;21.50;39.30;;;;;;4921225;29;20290;-95
2023/06/12 06:53:06;;;;;;;6.68;4.03;;;21.30;39.10;;;;;;4940374;29;20197;-94
2023/06/12 06:55:33;;;;;;;4.63;3.70;;;21.30;40.30;;;;;;4940436;29;20201;-95
2023/06/12 06:58:02;;;;;;;7.03;4.55;;;21.30;43.10;;;;;;4939685;29;20236;-95
2023/06/12 07:00:29;;;;;;;6.35;4.28;;;21.50;48.10;;;;;;4940057;29;20209;-95
2023/06/12 07:02:58;;;;;;;5.43;3.85;;;21.90;47.10;;;;;;4939855;29;20224;-96
2023/06/12 07:05:27;;;;;;;5.70;3.60;;;22.40;46.40;;;;;;4939758;29;20197;-96
2023/06/12 07:07:54;;;;;;;6.53;3.97;;;22.80;44.20;;;;;;4939694;29;20215;-96
2023/06/12 07:10:21;;;;;;;7.43;4.22;;;23.10;43.90;;;;;;4939916;29;20239;-96
2023/06/12 07:12:56;;;;;;;4.60;3.90;;;23.30;39.90;;;;;;4939506;29;20562;-95
2023/06/12 07:15:23;;;;;;;7.00;3.95;;;23.30;39.80;;;;;;4939661;29;20212;-95
2023/06/12 07:17:50;;;;;;;7.78;4.00;;;23.40;44.40;;;;;;4939883;29;20220;-95
2023/06/12 07:20:18;;;;;;;8.75;3.88;;;23.40;38.10;;;;;;4939519;29;20193;-95
2023/06/12 07:22:45;;;;;;;4.60;3.80;;;23.50;39.40;;;;;;4939665;29;20650;-95
2023/06/12 07:25:12;;;;;;;4.35;3.75;;;23.60;37.80;;;;;;4939319;29;20224;-96
2023/06/12 07:27:39;;;;;;;6.38;3.80;;;23.60;37.10;;;;;;4939167;29;20217;-96
2023/06/12 07:30:08;;;;;;;4.50;3.80;;;23.70;37.50;;;;;;4938756;29;20662;-95
2023/06/12 07:32:35;;;;;;;5.95;4.00;;;23.80;37.60;;;;;;4939491;29;20201;-96
2023/06/12 07:35:02;;;;;;;7.93;3.90;;;23.90;36.80;;;;;;4939467;29;20259;-95
2023/06/12 07:37:35;;;;;;;7.05;3.97;;;24.00;38.10;;;;;;4939394;29;20579;-95
2023/06/12 07:40:04;;;;;;;5.63;3.63;;;24.00;35.80;;;;;;4939640;29;20197;-96
2023/06/12 07:42:31;;;;;;;7.07;3.63;;;24.00;35.20;;;;;;4939166;29;20643;-96
2023/06/12 07:44:58;;;;;;;5.68;3.60;;;24.00;35.10;;;;;;4939448;29;20232;-96
2023/06/12 07:47:25;;;;;;;5.00;3.95;;;23.90;34.60;;;;;;4939203;29;20201;-96
2023/06/12 07:49:52;;;;;;;5.40;3.90;;;23.90;33.20;;;;;;4939230;29;20193;-95
2023/06/12 07:52:20;;;;;;;5.45;3.38;;;24.00;33.50;;;;;;4938778;29;20249;-96
2023/06/12 07:54:49;;;;;;;6.30;3.22;;;24.10;32.80;;;;;;4939247;29;20295;-96
2023/06/12 07:57:17;;;;;;;5.78;3.45;;;24.10;28.40;;;;;;4938231;29;20205;-96
2023/06/12 07:59:44;;;;;;;5.28;3.42;;;24.10;26.80;;;;;;4939063;29;20193;-96
2023/06/12 08:02:11;;;;;;;5.78;3.20;;;24.10;25.70;;;;;;4939000;29;20656;-96
2023/06/12 08:04:40;;;;;;;4.32;2.80;;;24.20;24.30;;;;;;4938661;29;20209;-96
2023/06/12 08:07:11;;;;;;;4.05;3.35;;;24.30;21.00;;;;;;4938590;29;20668;-96
2023/06/12 08:09:39;;;;;;;7.80;3.20;;;24.40;19.10;;;;;;4939222;29;20204;-96
2023/06/12 08:12:10;;;;;;;5.25;3.30;;;24.50;15.90;;;;;;4938398;29;20203;-96
2023/06/12 08:14:38;;;;;;;7.93;3.55;;;24.70;14.50;;;;;;4939091;29;20244;-96
2023/06/12 08:17:05;;;;;;;5.63;3.38;;;24.60;12.90;;;;;;4938564;29;20277;-96
2023/06/12 08:19:34;;;;;;;5.75;3.15;;;24.50;11.60;;;;;;4938728;29;20181;-95
2023/06/12 08:22:01;;;;;;;8.75;3.28;;;24.60;12.40;;;;;;4938554;29;20304;-96
2023/06/12 08:24:30;;;;;;;8.43;3.20;;;24.80;11.60;;;;;;4938123;29;20211;-96
2023/06/12 08:26:57;;;;;;;4.93;2.95;;;25.30;9.00;;;;;;4938627;29;20201;-96
2023/06/12 08:29:26;;;;;;;5.22;2.80;;;25.70;8.20;;;;;;4938455;29;20205;-96
2023/06/12 08:31:54;;;;;;;4.65;3.00;;;26.20;4.70;;;;;;4938490;29;20229;-95
2023/06/12 08:34:24;;;;;;;7.10;2.95;;;26.50;2.30;;;;;;4938309;29;20233;-94
2023/06/12 08:36:51;;;;;;;12.60;3.15;;;26.70;16.40;;;;;;4938170;29;20201;-93
2023/06/12 08:39:18;;;;;;;3.20;2.83;;;26.60;1.00;;;;;;4937957;29;20220;-96
2023/06/12 08:42:04;;;;;;;4.38;2.90;;;26.60;1.00;;;;;;4938240;29;20217;-96
2023/06/12 08:44:32;;;;;;;5.72;3.03;;;26.90;1.00;;;;;;4932758;29;20194;-96
2023/06/12 08:47:02;;;;;;;4.28;2.97;;;27.30;1.00;;;;;;4938308;29;20256;-96
2023/06/12 08:49:30;;;;;;;6.80;3.17;;;27.70;1.00;;;;;;4938242;29;20197;-94
2023/06/12 08:51:57;;;;;;;8.23;3.05;;;28.20;1.00;;;;;;4937951;29;20256;-94
2023/06/12 08:54:25;;;;;;;6.60;2.50;;;28.30;1.00;;;;;;4937772;29;20201;-94
2023/06/12 08:56:55;;;;;;;3.78;2.70;;;28.00;1.00;;;;;;4937659;29;20205;-95
2023/06/12 08:59:21;;;;;;;3.05;2.75;;;27.50;1.00;;;;;;4937759;29;20256;-95
2023/06/12 09:01:53;;;;;;;5.10;2.90;;;27.10;1.00;;;;;;4937734;29;20209;-95
2023/06/12 09:04:28;;;;;;;3.17;2.67;;;26.70;1.00;;;;;;4938026;29;20189;-94
2023/06/12 09:07:01;;;;;;;5.97;2.78;;;26.40;1.00;;;;;;4938002;29;20704;-94
2023/06/12 09:09:37;;;;;;;4.82;3.38;;;26.20;1.00;;;;;;4937645;29;20205;-94
2023/06/12 09:12:06;;;;;;;6.45;2.90;;;26.20;1.00;;;;;;4937624;29;20207;-94
2023/06/12 09:14:35;;;;;;;5.50;3.00;;;26.00;1.00;;;;;;4937885;29;20211;-96
2023/06/12 09:17:04;;;;;;;4.30;3.03;;;25.70;1.00;;;;;;4937343;29;20283;-96
2023/06/12 09:19:37;;;;;;;3.60;2.70;;;25.50;1.00;;;;;;4937439;29;20252;-94
2023/06/12 09:22:05;;;;;;;6.38;2.97;;;25.40;1.00;;;;;;4937452;29;20280;-96
2023/06/12 09:24:32;;;;;;;7.57;3.03;;;25.50;1.00;;;;;;4937368;29;20291;-96
2023/06/12 09:27:00;;;;;;;5.63;2.85;;;25.60;1.00;;;;;;4937953;29;20639;-95
2023/06/12 09:29:28;;;;;;;3.15;2.63;;;25.90;1.00;;;;;;4937858;29;20204;-96
2023/06/12 09:31:55;;;;;;;4.90;3.50;;;26.00;1.00;;;;;;4937420;29;20199;-96
2023/06/12 09:34:25;;;;;;;3.65;2.75;;;25.90;1.00;;;;;;4938816;29;20201;-96
2023/06/12 09:36:53;;;;;;;4.03;2.90;;;25.60;1.00;;;;;;4937607;29;20191;-96
2023/06/12 09:39:30;;;;;;;5.38;3.22;;;25.40;1.00;;;;;;4937430;29;20269;-96
2023/06/12 09:41:58;;;;;;;3.78;2.90;;;25.30;1.00;;;;;;4937268;29;20200;-96
2023/06/12 09:44:28;;;;;;;4.60;2.85;;;25.20;1.00;;;;;;4936987;29;20671;-96
2023/06/12 09:46:59;;;;;;;6.43;2.97;;;25.00;1.00;;;;;;4937243;29;20200;-96
2023/06/12 09:49:28;;;;;;;3.75;2.70;;;24.80;1.00;;;;;;4937276;29;20631;-96
2023/06/12 09:51:55;;;;;;;6.32;3.03;;;24.80;1.00;;;;;;4936922;29;20232;-96
2023/06/12 09:54:23;;;;;;;3.83;2.80;;;24.90;1.00;;;;;;4939632;29;20236;-96
2023/06/12 09:56:53;;;;;;;9.85;2.90;;;25.20;1.00;;;;;;4941840;29;20232;-96
2023/06/12 09:59:22;;;;;;;4.72;2.63;;;25.80;1.00;;;;;;4942172;29;20582;-96
2023/06/12 10:01:51;;;;;;;4.68;2.95;;;26.10;1.00;;;;;;4941842;29;20239;-96
2023/06/12 10:04:25;;;;;;;3.78;3.00;;;26.40;1.00;;;;;;4941340;29;20208;-96
2023/06/12 10:07:04;;;;;;;6.38;3.05;;;26.90;1.00;;;;;;4941620;29;20220;-96
2023/06/12 10:09:32;;;;;;;7.78;2.90;;;27.20;1.00;;;;;;4943791;29;20204;-95
2023/06/12 10:12:01;;;;;;;5.13;2.90;;;27.50;1.00;;;;;;4940808;29;20193;-96
2023/06/12 10:14:29;;;;;;;6.43;2.80;;;27.60;1.00;;;;;;4940775;29;20205;-96
2023/06/12 10:16:58;;;;;;;9.40;2.92;;;27.80;1.00;;;;;;4941125;29;20268;-93
2023/06/12 10:19:26;;;;;;;4.10;2.60;;;27.80;1.00;;;;;;4941105;29;20201;-95
2023/06/12 10:21:56;;;;;;;4.85;2.72;;;27.70;1.00;;;;;;4940639;29;20205;-95
2023/06/12 10:24:23;;;;;;;4.78;2.95;;;27.70;1.00;;;;;;4940875;29;20260;-95
2023/06/12 10:26:52;;;;;;;8.43;2.90;;;27.60;1.00;;;;;;4940644;29;20265;-96
2023/06/12 10:29:30;;;;;;;6.95;2.90;;;27.30;1.00;;;;;;4940572;29;20671;-94
2023/06/12 10:32:05;;;;;;;4.55;2.70;;;27.00;1.00;;;;;;4940672;29;20207;-95
2023/06/12 10:34:34;;;;;;;4.00;3.03;;;26.60;1.00;;;;;;4940423;29;20632;-94
2023/06/12 10:37:21;;;;;;;4.57;2.88;;;26.40;1.00;;;;;;4940235;29;20301;-94
2023/06/12 10:39:49;;;;;;;4.53;2.63;;;26.10;1.00;;;;;;4940509;29;20604;-96
2023/06/12 10:42:18;;;;;;;4.55;3.10;;;25.90;1.00;;;;;;4940315;29;20217;-95
2023/06/12 10:44:48;;;;;;;3.13;2.58;;;26.00;1.00;;;;;;4940267;29;20237;-96
2023/06/12 10:47:20;;;;;;;6.03;2.70;;;26.20;1.00;;;;;;4921337;29;20197;-95
2023/06/12 10:49:56;;;;;;;5.10;2.63;;;26.40;1.00;;;;;;4935098;29;20201;-95
2023/06/12 10:52:25;;;;;;;4.57;2.58;;;26.50;1.00;;;;;;4940321;29;20200;-95
2023/06/12 10:55:20;;;;;;;3.55;2.67;;;26.50;1.00;;;;;;4940081;29;20201;-95
2023/06/12 10:57:52;;;;;;;4.05;3.08;;;26.70;1.00;;;;;;4940043;29;20308;-96
2023/06/12 11:00:21;;;;;;;4.20;2.60;;;27.20;1.00;;;;;;4921148;29;20257;-96
2023/06/12 11:02:57;;;;;;;2.97;2.63;;;27.60;1.00;;;;;;4932152;29;20222;-96
2023/06/12 11:05:25;;;;;;;4.35;2.78;;;27.60;1.00;;;;;;5371730;23;20313;-96
2023/06/12 11:07:56;;;;;;;3.67;2.60;;;27.70;1.00;;;;;;4999504;28;20195;-96
2023/06/12 11:10:23;;;;;;;4.40;3.28;;;27.90;1.00;;;;;;5002014;28;20195;-96
2023/06/12 11:12:52;;;;;;;4.15;3.03;;;28.30;1.00;;;;;;5002095;28;20215;-96
2023/06/12 11:15:21;;;;;;;6.13;2.90;;;28.50;1.00;;;;;;4998143;28;20261;-96
2023/06/12 11:17:48;;;;;;;4.78;2.97;;;28.70;1.00;;;;;;5001447;28;20226;-96
2023/06/12 11:20:16;;;;;;;3.45;2.80;;;29.10;1.00;;;;;;4984355;28;20196;-96
2023/06/12 11:22:44;;;;;;;4.85;3.00;;;29.40;1.00;;;;;;4994283;28;20374;-96
2023/06/12 11:25:12;;;;;;;3.83;2.83;;;29.30;1.00;;;;;;5000343;28;20199;-96
2023/06/12 11:27:39;;;;;;;5.90;2.88;;;28.80;1.00;;;;;;4998153;28;20245;-96
2023/06/12 11:30:10;;;;;;;4.00;2.60;;;28.30;1.00;;;;;;4997978;28;20234;-96
2023/06/12 11:32:37;;;;;;;5.93;3.33;;;28.00;1.00;;;;;;4998875;28;20210;-96
2023/06/12 11:35:06;;;;;;;3.10;2.80;;;27.60;1.00;;;;;;4998679;28;20230;-96
2023/06/12 11:37:34;;;;;;;5.85;2.78;;;27.20;1.00;;;;;;5000153;28;20274;-96
2023/06/12 11:40:06;;;;;;;3.67;2.85;;;26.90;1.00;;;;;;4997924;28;20195;-96
2023/06/12 11:42:34;;;;;;;4.30;2.60;;;26.50;1.00;;;;;;5000496;28;20230;-96
2023/06/12 11:45:02;;;;;;;7.63;2.83;;;26.40;1.00;;;;;;4999090;28;20256;-96
2023/06/12 11:47:29;;;;;;;5.00;2.78;;;26.40;1.00;;;;;;5000587;28;20716;-96
2023/06/12 11:49:56;;;;;;;4.13;3.05;;;26.50;1.00;;;;;;5000756;28;20242;-96
2023/06/12 11:52:23;;;;;;;5.78;3.08;;;26.80;1.00;;;;;;5001581;28;20196;-96
2023/06/12 11:55:01;;;;;;;6.07;3.17;;;27.00;1.00;;;;;;5007593;28;20601;-96
2023/06/12 11:57:29;;;;;;;3.53;2.88;;;27.10;1.00;;;;;;5002983;28;20203;-96
2023/06/12 11:59:58;;;;;;;8.07;2.72;;;27.40;1.00;;;;;;5001399;28;20199;-96
2023/06/12 12:02:30;;;;;;;4.75;3.20;;;27.50;1.00;;;;;;5002323;28;20205;-96
2023/06/12 12:04:59;;;;;;;6.10;3.17;;;27.70;1.00;;;;;;5001019;28;20270;-95
2023/06/12 12:07:29;;;;;;;7.18;3.15;;;27.80;1.00;;;;;;5000712;28;20258;-96
2023/06/12 12:10:04;;;;;;;4.00;2.83;;;27.90;1.00;;;;;;5002587;28;20241;-96
2023/06/12 12:12:40;;;;;;;3.05;2.75;;;27.80;1.00;;;;;;5000651;28;20244;-96
2023/06/12 12:15:10;;;;;;;3.10;2.80;;;27.80;1.00;;;;;;5004433;28;20202;-96
2023/06/12 12:17:38;;;;;;;4.20;2.92;;;27.90;1.00;;;;;;5002438;28;20226;-96
2023/06/12 12:20:07;;;;;;;4.32;2.85;;;27.80;1.00;;;;;;5000987;28;20241;-96
2023/06/12 12:22:39;;;;;;;4.70;2.75;;;27.60;1.00;;;;;;5002212;28;20207;-96
2023/06/12 12:25:07;;;;;;;3.88;2.47;;;27.60;1.00;;;;;;5002768;28;20274;-96
2023/06/12 12:27:34;;;;;;;4.85;2.60;;;27.60;1.00;;;;;;4999290;28;20195;-96
2023/06/12 12:30:03;;;;;;;5.88;2.85;;;27.70;1.00;;;;;;4997838;28;20254;-96
2023/06/12 12:32:33;;;;;;;4.20;2.72;;;27.80;1.00;;;;;;4979400;28;20265;-96
2023/06/12 12:35:00;;;;;;;4.97;2.90;;;27.90;1.00;;;;;;4978638;28;20203;-95
2023/06/12 12:37:27;;;;;;;6.18;3.22;;;28.10;1.00;;;;;;4989993;28;20226;-96
2023/06/12 12:39:54;;;;;;;4.75;2.83;;;28.20;1.00;;;;;;5000272;28;20191;-96
2023/06/12 12:42:21;;;;;;;7.80;2.80;;;28.40;1.00;;;;;;4997512;28;20207;-96
2023/06/12 12:44:48;;;;;;;7.28;2.53;;;28.50;1.00;;;;;;4999426;28;20224;-96
2023/06/12 12:47:16;;;;;;;3.33;2.53;;;28.50;1.00;;;;;;5010081;28;20202;-96
2023/06/12 12:49:44;;;;;;;2.47;2.13;;;28.50;1.00;;;;;;5012671;28;20202;-96
2023/06/12 12:52:11;;;;;;;4.15;2.47;;;28.30;1.00;;;;;;5013670;28;20206;-96
2023/06/12 12:54:38;;;;;;;4.70;2.55;;;28.10;1.00;;;;;;5004411;28;20195;-96
2023/06/12 12:57:07;;;;;;;4.50;2.63;;;27.90;1.00;;;;;;5000983;28;20262;-96
2023/06/12 12:59:34;;;;;;;3.83;2.47;;;27.80;1.00;;;;;;5002512;28;20190;-96
2023/06/12 13:02:02;;;;;;;4.95;2.45;;;27.80;1.00;;;;;;4999648;28;20226;-96
2023/06/12 13:04:29;;;;;;;4.32;2.50;;;27.70;1.00;;;;;;5002259;28;20291;-96
2023/06/12 13:06:58;;;;;;;3.65;2.38;;;27.70;1.00;;;;;;4999532;28;20207;-96
2023/06/12 13:09:25;;;;;;;3.58;2.25;;;27.80;1.00;;;;;;5002059;28;20222;-96
2023/06/12 13:11:52;;;;;;;3.65;2.40;;;27.70;1.00;;;;;;4998237;28;20671;-96
2023/06/12 13:14:19;;;;;;;3.33;2.47;;;27.60;1.00;;;;;;4997610;28;20190;-96
2023/06/12 13:16:46;;;;;;;4.78;2.20;;;27.40;1.00;;;;;;4996558;28;20230;-96
2023/06/12 13:19:13;;;;;;;3.42;2.25;;;27.60;1.00;;;;;;4997677;28;20198;-96
2023/06/12 13:21:42;;;;;;;3.42;2.40;;;27.80;1.00;;;;;;4998235;28;20289;-96
2023/06/12 13:24:11;;;;;;;4.43;2.50;;;27.90;1.00;;;;;;4999792;28;20266;-95
2023/06/12 13:26:37;;;;;;;4.22;2.30;;;28.10;1.00;;;;;;4999868;28;20221;-96
2023/06/12 13:29:04;;;;;;;3.95;2.63;;;28.20;1.00;;;;;;4996831;28;20190;-96
2023/06/12 13:31:31;;;;;;;2.67;2.47;;;28.20;1.00;;;;;;4999476;28;20226;-96
2023/06/12 13:33:59;;;;;;;2.45;2.20;;;28.20;1.00;;;;;;5001168;28;20230;-96
2023/06/12 13:36:26;;;;;;;3.40;2.33;;;28.30;1.00;;;;;;5003885;28;20186;-96
2023/06/12 13:38:53;;;;;;;2.33;1.98;;;28.50;1.00;;;;;;5006327;28;20201;-96
2023/06/12 13:41:22;;;;;;;4.10;2.40;;;28.50;1.00;;;;;;5004070;28;20198;-96
2023/06/12 13:43:49;;;;;;;4.55;2.35;;;28.40;1.00;;;;;;5004206;28;20210;-96
2023/06/12 13:46:16;;;;;;;2.97;2.35;;;28.30;1.00;;;;;;5008787;28;20340;-96
2023/06/12 13:48:43;;;;;;;4.70;2.33;;;28.20;1.00;;;;;;5005232;28;20199;-96
2023/06/12 13:51:10;;;;;;;3.63;2.15;;;28.10;1.00;;;;;;4999625;28;20203;-96
2023/06/12 13:53:39;;;;;;;4.65;2.45;;;28.10;1.00;;;;;;4996988;28;20660;-95
2023/06/12 13:56:07;;;;;;;4.35;2.30;;;28.30;1.00;;;;;;4999752;28;20226;-96
2023/06/12 13:58:37;;;;;;;4.47;2.50;;;28.40;1.00;;;;;;5000811;28;20226;-96
2023/06/12 14:01:04;;;;;;;4.68;2.40;;;28.60;1.00;;;;;;4999377;28;20202;-96
2023/06/12 14:03:32;;;;;;;5.55;2.10;;;28.70;1.00;;;;;;4997086;28;20222;-95
2023/06/12 14:05:59;;;;;;;2.60;2.40;;;28.70;1.00;;;;;;4999591;28;20226;-96
2023/06/12 14:08:26;;;;;;;3.03;2.10;;;28.80;1.00;;;;;;5001960;28;20206;-96
2023/06/12 14:10:54;;;;;;;18.75;2.83;;;28.90;1.00;;;;;;4999277;28;20285;-96
2023/06/12 14:13:21;;;;;;;3.45;2.30;;;28.80;1.00;;;;;;4997810;28;20210;-96
2023/06/12 14:15:50;;;;;;;3.85;2.50;;;28.80;1.00;;;;;;5001593;28;20207;-96
2023/06/12 14:18:17;;;;;;;3.88;2.45;;;28.70;1.00;;;;;;5004801;28;20199;-96
2023/06/12 14:20:44;;;;;;;7.50;2.38;;;28.60;1.00;;;;;;5004187;28;20209;-96
2023/06/12 14:23:12;;;;;;;3.33;2.33;;;28.50;1.00;;;;;;5002069;28;20205;-96
2023/06/12 14:25:39;;;;;;;3.50;2.45;;;28.60;1.00;;;;;;5005021;28;20209;-96
2023/06/12 14:28:06;;;;;;;3.22;2.50;;;28.70;1.00;;;;;;5003966;28;20207;-96
2023/06/12 14:30:39;;;;;;;3.53;2.55;;;28.70;1.00;;;;;;5001421;28;20203;-96
2023/06/12 14:33:08;;;;;;;4.80;2.30;;;28.90;1.00;;;;;;5004579;28;20203;-96
2023/06/12 14:35:35;;;;;;;4.63;2.30;;;29.10;1.00;;;;;;5010857;28;20205;-96
2023/06/12 14:38:03;;;;;;;6.53;2.50;;;29.10;1.00;;;;;;5008475;28;20271;-96
2023/06/12 14:40:30;;;;;;;4.32;2.50;;;29.10;1.00;;;;;;5003956;28;20203;-96
2023/06/12 14:42:57;;;;;;;3.60;2.38;;;29.10;1.00;;;;;;5005982;28;20217;-96
2023/06/12 14:45:24;;;;;;;9.65;2.58;;;28.80;1.00;;;;;;5004087;28;20214;-96
2023/06/12 14:47:52;;;;;;;6.38;2.40;;;28.50;1.00;;;;;;5004226;28;20214;-96
2023/06/12 14:50:21;;;;;;;3.50;2.38;;;28.30;1.00;;;;;;5003530;28;20204;-96
2023/06/12 14:52:48;;;;;;;3.97;2.28;;;28.10;1.00;;;;;;5007233;28;20203;-96
2023/06/12 14:55:16;;;;;;;3.72;2.30;;;28.10;1.00;;;;;;5001270;28;20233;-96
2023/06/12 14:57:43;;;;;;;4.03;2.63;;;27.90;1.00;;;;;;4998865;28;20672;-96
2023/06/12 15:00:11;;;;;;;3.42;2.22;;;27.70;1.00;;;;;;4998714;28;20279;-95
2023/06/12 15:02:38;;;;;;;2.85;2.40;;;27.80;1.00;;;;;;5000908;28;20202;-96
2023/06/12 15:05:06;;;;;;;3.60;2.72;;;28.00;1.00;;;;;;5002211;28;20234;-96
2023/06/12 15:07:35;;;;;;;4.63;2.20;;;28.20;1.00;;;;;;5007152;28;20210;-96
2023/06/12 15:10:03;;;;;;;3.47;2.28;;;28.30;1.00;;;;;;5003556;28;20226;-96
2023/06/12 15:12:30;;;;;;;4.85;2.30;;;28.20;1.00;;;;;;5002304;28;20207;-96
2023/06/12 15:14:57;;;;;;;6.00;2.33;;;28.20;1.00;;;;;;5004690;28;20203;-96
2023/06/12 15:17:24;;;;;;;5.80;2.80;;;28.10;1.00;;;;;;5003373;28;20208;-96
2023/06/12 15:19:52;;;;;;;5.43;2.53;;;28.00;1.00;;;;;;5003075;28;20209;-96
2023/06/12 15:22:20;;;;;;;2.60;2.15;;;28.00;1.00;;;;;;5010812;28;20210;-96
2023/06/12 15:24:50;;;;;;;5.70;2.40;;;28.00;1.00;;;;;;5010207;28;20218;-96
2023/06/12 15:27:17;;;;;;;3.25;2.28;;;28.20;1.00;;;;;;5004728;28;20207;-95
2023/06/12 15:29:45;;;;;;;3.05;2.35;;;28.40;1.00;;;;;;5001102;28;20703;-96
2023/06/12 15:32:12;;;;;;;6.78;2.53;;;28.50;1.00;;;;;;5001507;28;20203;-96
2023/06/12 15:34:39;;;;;;;3.38;2.05;;;28.40;1.00;;;;;;5004517;28;20195;-96
2023/06/12 15:37:07;;;;;;;3.05;2.05;;;28.40;1.00;;;;;;5003853;28;20202;-96
2023/06/12 15:42:23;;;;;;;4.88;2.30;;;28.20;1.00;;;;;;5007543;28;20282;-96
2023/06/12 15:44:50;;;;;;;3.35;2.30;;;28.10;1.00;;;;;;5003280;28;20226;-96
2023/06/12 15:47:19;;;;;;;3.63;2.17;;;28.10;1.00;;;;;;4995454;28;20199;-96
2023/06/12 15:49:47;;;;;;;4.80;2.30;;;28.10;1.00;;;;;;5000578;28;20199;-96
2023/06/12 15:52:14;;;;;;;3.83;2.42;;;28.10;1.00;;;;;;5009961;28;20206;-96
2023/06/12 15:54:41;;;;;;;5.53;2.38;;;28.00;1.00;;;;;;5002497;28;20209;-96
2023/06/12 15:57:13;;;;;;;3.53;2.13;;;28.00;1.00;;;;;;5009266;28;20206;-96
2023/06/12 16:00:12;;;;;;;4.28;2.38;;;28.00;1.00;;;;;;5016018;28;20203;-96
2023/06/12 16:02:42;;;;;;;4.53;2.13;;;28.00;1.00;;;;;;5012929;28;20202;-96
2023/06/12 16:05:10;;;;;;;4.85;2.30;;;28.00;1.00;;;;;;5011441;28;20219;-96
2023/06/12 16:07:38;;;;;;;4.43;2.13;;;28.00;1.00;;;;;;5008876;28;20660;-96
2023/06/12 16:10:07;;;;;;;2.90;2.20;;;28.00;1.00;;;;;;5008039;28;20199;-96
2023/06/12 16:12:34;;;;;;;2.90;2.30;;;28.00;1.00;;;;;;5011130;28;20209;-96
2023/06/12 16:15:10;;;;;;;2.90;2.15;;;28.10;1.00;;;;;;5010055;28;20202;-96
2023/06/12 16:18:02;;;;;;;3.95;2.40;;;28.00;1.00;;;;;;5011564;28;20672;-96
2023/06/12 16:20:46;;;;;;;2.97;2.65;;;28.00;1.00;;;;;;5010595;28;20218;-96
2023/06/12 16:23:30;;;;;;;4.25;2.33;;;28.00;1.00;;;;;;5014944;28;20190;-96
2023/06/12 16:25:57;;;;;;;5.82;2.15;;;28.10;1.00;;;;;;5138720;23;20231;-96
2023/06/12 16:37:02;;;;;;;3.47;2.00;;;28.50;1.00;;;;;;5104524;23;20202;-96
2023/06/12 16:39:29;;;;;;;2.40;1.98;;;28.50;1.00;;;;;;4989158;28;20215;-96
2023/06/12 16:41:56;;;;;;;3.70;2.20;;;28.60;1.00;;;;;;4987406;28;20203;-96
2023/06/12 16:46:59;;;;;;;2.65;2.17;;;28.90;1.00;;;;;;5180360;23;20240;-96
2023/06/12 16:49:26;;;;;;;4.90;2.45;;;29.20;1.00;;;;;;5296845;23;20222;-96
2023/06/12 16:51:56;;;;;;;5.43;2.20;;;29.50;1.00;;;;;;5267823;23;20215;-87
2023/06/12 16:59:27;;;;;;;3.08;2.20;;;30.20;1.00;;;;;;5168941;23;20236;-96
2023/06/12 17:01:54;;;;;;;3.42;2.20;;;30.50;1.00;;;;;;5047412;28;20216;-96
2023/06/12 17:04:21;;;;;;;5.50;2.53;;;30.70;1.00;;;;;;5050465;28;20190;-96
2023/06/12 17:06:48;;;;;;;5.70;2.42;;;30.90;1.00;;;;;;5048247;28;20194;-96
2023/06/12 17:09:16;;;;;;;6.03;2.20;;;31.20;1.00;;;;;;5042969;28;20201;-96
2023/06/12 17:11:43;;;;;;;4.05;2.00;;;31.50;1.00;;;;;;5039904;28;20201;-96
2023/06/12 17:14:10;;;;;;;2.17;1.98;;;31.70;1.00;;;;;;5042064;28;20252;-96
2023/06/12 17:16:39;;;;;;;3.80;2.30;;;31.80;1.00;;;;;;5037433;28;20201;-96
2023/06/12 17:19:06;;;;;;;3.20;2.10;;;32.00;1.00;;;;;;5031231;28;20205;-96
2023/06/12 17:21:33;;;;;;;5.93;2.10;;;32.00;1.00;;;;;;5021095;28;20198;-96
2023/06/12 17:23:59;;;;;;;5.45;2.20;;;32.00;1.00;;;;;;5022312;28;20197;-93
2023/06/12 17:26:26;;;;;;;5.07;2.20;;;31.90;1.00;;;;;;5013041;28;20198;-94
2023/06/12 17:28:53;;;;;;;3.53;2.25;;;31.90;1.00;;;;;;5020219;28;20177;-95
2023/06/12 17:31:20;;;;;;;2.70;2.20;;;32.00;1.00;;;;;;5032543;28;20244;-95
2023/06/12 17:33:49;;;;;;;4.10;2.25;;;32.20;1.00;;;;;;5032538;28;20220;-96
2023/06/12 17:36:16;;;;;;;3.28;2.13;;;32.30;1.00;;;;;;5017869;28;20198;-94
2023/06/12 17:38:47;;;;;;;4.80;2.25;;;32.30;1.00;;;;;;5035335;28;20248;-95
2023/06/12 17:41:14;;;;;;;5.68;2.00;;;32.30;1.00;;;;;;5024009;28;20277;-96
2023/06/12 17:43:41;;;;;;;2.28;2.08;;;31.90;1.00;;;;;;5017368;28;20222;-96
2023/06/12 17:46:08;;;;;;;2.60;1.90;;;31.70;1.00;;;;;;5017420;28;20205;-96
2023/06/12 17:48:35;;;;;;;3.95;2.30;;;31.80;1.00;;;;;;5017224;28;20563;-95
2023/06/12 17:51:04;;;;;;;4.30;2.10;;;31.90;1.00;;;;;;5017216;28;20224;-96
2023/06/12 17:53:31;;;;;;;2.58;2.00;;;31.40;1.00;;;;;;5017506;28;20198;-94
2023/06/12 17:55:58;;;;;;;2.83;2.17;;;30.30;1.00;;;;;;5017296;28;20220;-95
2023/06/12 17:58:25;;;;;;;2.50;2.20;;;29.20;1.00;;;;;;5017148;28;20260;-95
2023/06/12 18:00:52;;;;;;;3.50;2.30;;;28.10;1.00;;;;;;5018100;28;20222;-96
2023/06/12 18:03:19;;;;;;;5.60;2.22;;;27.40;1.00;;;;;;5020698;28;20206;-95
2023/06/12 18:05:46;;;;;;;3.67;2.30;;;27.20;1.00;;;;;;5015178;28;20620;-96
2023/06/12 18:08:14;;;;;;;4.38;2.30;;;27.40;1.00;;;;;;5012632;28;20249;-96
2023/06/12 18:10:41;;;;;;;3.10;2.60;;;27.30;1.00;;;;;;5015199;28;20245;-96
2023/06/12 18:13:08;;;;;;;2.95;2.30;;;26.80;1.00;;;;;;5016029;28;20294;-96
2023/06/12 18:15:37;;;;;;;5.47;2.65;;;26.20;1.00;;;;;;4999791;28;20203;-95
2023/06/12 18:18:05;;;;;;;3.00;2.30;;;25.70;1.00;;;;;;5009665;28;20252;-95
2023/06/12 18:20:31;;;;;;;4.93;2.58;;;25.20;1.00;;;;;;5008171;28;20195;-93
2023/06/12 18:22:58;;;;;;;4.03;2.40;;;24.90;1.00;;;;;;5016076;28;20256;-95
2023/06/12 18:25:27;;;;;;;3.75;2.65;;;24.60;1.00;;;;;;5016877;28;20203;-95
2023/06/12 18:27:54;;;;;;;2.38;2.03;;;24.30;1.00;;;;;;5016467;28;20198;-92
2023/06/12 18:30:21;;;;;;;2.47;2.22;;;24.10;1.00;;;;;;5016328;28;20292;-95
2023/06/12 18:32:47;;;;;;;3.53;2.28;;;23.90;1.00;;;;;;5016972;28;20194;-94
2023/06/12 18:35:15;;;;;;;4.93;2.58;;;23.70;1.00;;;;;;5016527;28;20663;-93
2023/06/12 18:37:41;;;;;;;3.33;2.40;;;23.50;1.00;;;;;;5016467;28;20194;-92